createdAt,value
2023-04-24T00:01:04.816Z,5.28
2023-04-24T00:03:31.659Z,5.80
2023-04-24T00:06:00.026Z,5.97
2023-04-24T00:08:26.688Z,5.18
2023-04-24T00:10:53.847Z,6.45
2023-04-24T00:13:22.773Z,5.63
2023-04-24T00:15:49.373Z,6.55
2023-04-24T00:18:16.044Z,6.55
2023-04-24T00:20:44.715Z,6.45
2023-04-24T00:23:11.549Z,6.10
2023-04-24T00:25:38.104Z,6.22
2023-04-24T00:28:04.725Z,6.68
2023-04-24T00:30:32.150Z,6.88
2023-04-24T00:32:59.384Z,6.63
2023-04-24T00:35:26.234Z,7.15
2023-04-24T00:37:52.841Z,6.10
2023-04-24T00:40:19.344Z,6.60
2023-04-24T00:42:46.697Z,6.28
2023-04-24T00:45:13.449Z,6.63
2023-04-24T00:47:44.152Z,6.32
2023-04-24T00:50:12.559Z,6.75
2023-04-24T00:52:41.913Z,6.88
2023-04-24T00:55:09.364Z,6.57
2023-04-24T00:57:36.761Z,6.50
2023-04-24T01:00:04.676Z,6.15
2023-04-24T01:02:31.489Z,6.57
2023-04-24T01:04:58.507Z,6.47
2023-04-24T01:07:26.212Z,6.68
2023-04-24T01:09:53.259Z,6.50
2023-04-24T01:12:20.819Z,7.03
2023-04-24T01:14:47.688Z,7.55
2023-04-24T01:17:14.269Z,7.20
2023-04-24T01:19:41.816Z,7.30
2023-04-24T01:22:12.767Z,7.63
2023-04-24T01:24:41.258Z,7.80
2023-04-24T01:27:09.040Z,8.15
2023-04-24T01:29:36.454Z,7.97
2023-04-24T01:32:04.631Z,7.72
2023-04-24T01:34:31.897Z,8.82
2023-04-24T01:36:58.765Z,8.60
2023-04-24T01:39:26.609Z,8.25
2023-04-24T01:41:54.644Z,8.45
2023-04-24T01:44:22.226Z,10.07
2023-04-24T01:46:48.983Z,10.00
2023-04-24T01:49:15.691Z,8.73
2023-04-24T01:51:42.258Z,9.40
2023-04-24T01:54:08.904Z,10.17
2023-04-24T01:56:36.892Z,10.87
2023-04-24T01:59:04.860Z,9.80
2023-04-24T02:01:39.170Z,9.95
2023-04-24T02:04:07.813Z,11.27
2023-04-24T02:06:34.476Z,11.23
2023-04-24T02:09:02.517Z,11.40
2023-04-24T02:11:29.126Z,11.00
2023-04-24T02:13:55.618Z,10.90
2023-04-24T02:16:22.302Z,11.23
2023-04-24T02:18:48.815Z,12.30
2023-04-24T02:21:15.607Z,13.90
2023-04-24T02:23:42.227Z,12.97
2023-04-24T02:26:08.958Z,13.17
2023-04-24T02:28:35.751Z,14.60
2023-04-24T02:31:02.485Z,13.20
2023-04-24T02:33:29.401Z,12.53
2023-04-24T02:35:55.975Z,13.77
2023-04-24T02:38:23.441Z,13.45
2023-04-24T02:40:50.140Z,15.10
2023-04-24T02:43:16.620Z,13.98
2023-04-24T02:45:43.144Z,13.43
2023-04-24T02:48:09.671Z,14.73
2023-04-24T02:54:20.132Z,14.07
2023-04-24T03:03:19.257Z,13.53
2023-04-24T03:05:48.528Z,15.30
2023-04-24T03:08:15.537Z,16.25
2023-04-24T03:10:42.032Z,14.23
2023-04-24T03:13:08.693Z,14.95
2023-04-24T03:15:35.199Z,14.77
2023-04-24T03:18:03.690Z,16.35
2023-04-24T03:20:31.317Z,16.53
2023-04-24T03:22:58.215Z,14.90
2023-04-24T03:25:26.903Z,15.15
2023-04-24T03:27:53.524Z,15.48
2023-04-24T03:30:20.239Z,15.95
2023-04-24T03:32:46.875Z,15.88
2023-04-24T03:35:13.425Z,15.82
2023-04-24T03:37:39.959Z,15.88
2023-04-24T03:40:08.090Z,13.70
2023-04-24T03:42:36.005Z,15.82
2023-04-24T03:45:03.532Z,13.83
2023-04-24T03:47:30.159Z,14.05
2023-04-24T03:49:56.886Z,14.25
2023-04-24T03:52:24.758Z,14.45
2023-04-24T03:54:51.274Z,14.30
2023-04-24T03:57:18.147Z,12.13
2023-04-24T03:59:44.661Z,13.10
2023-04-24T04:02:11.492Z,11.75
2023-04-24T04:04:38.190Z,12.20
2023-04-24T04:07:06.288Z,12.23
2023-04-24T04:09:33.590Z,12.07
2023-04-24T04:12:01.404Z,11.95
2023-04-24T04:14:28.770Z,12.55
2023-04-24T04:16:55.526Z,11.48
2023-04-24T04:19:22.316Z,10.35
2023-04-24T04:21:53.934Z,11.48
2023-04-24T04:24:24.981Z,10.02
2023-04-24T04:26:53.085Z,11.18
2023-04-24T04:29:19.664Z,10.90
2023-04-24T04:31:46.309Z,11.88
2023-04-24T04:34:13.699Z,10.45
2023-04-24T04:36:41.190Z,11.23
2023-04-24T04:39:08.484Z,11.85
2023-04-24T04:41:38.825Z,13.20
2023-04-24T04:44:06.582Z,12.77
2023-04-24T04:46:38.397Z,12.80
2023-04-24T04:49:05.333Z,12.30
2023-04-24T04:51:32.168Z,13.20
2023-04-24T04:53:58.624Z,13.27
2023-04-24T04:56:25.688Z,13.20
2023-04-24T04:58:52.156Z,13.70
2023-04-24T05:01:19.874Z,12.85
2023-04-24T05:03:46.768Z,13.27
2023-04-24T05:06:13.504Z,12.63
2023-04-24T05:08:40.478Z,13.20
2023-04-24T05:11:07.355Z,12.07
2023-04-24T05:13:39.854Z,10.77
2023-04-24T05:16:08.058Z,11.95
2023-04-24T05:18:34.951Z,12.10
2023-04-24T05:21:02.301Z,10.57
2023-04-24T05:23:28.844Z,12.13
2023-04-24T05:25:55.617Z,10.15
2023-04-24T05:28:22.329Z,11.73
2023-04-24T05:30:48.780Z,11.10
2023-04-24T05:33:15.514Z,11.73
2023-04-24T05:35:47.719Z,11.93
2023-04-24T05:38:14.781Z,12.25
2023-04-24T05:40:41.274Z,12.23
2023-04-24T05:43:07.775Z,12.00
2023-04-24T05:45:36.845Z,12.80
2023-04-24T05:48:04.350Z,12.80
2023-04-24T05:50:31.208Z,12.57
2023-04-24T05:53:02.864Z,11.90
2023-04-24T05:55:29.497Z,11.77
2023-04-24T05:57:56.056Z,11.87
2023-04-24T06:00:22.776Z,12.00
2023-04-24T06:02:49.975Z,12.02
2023-04-24T06:05:17.152Z,10.65
2023-04-24T06:07:43.655Z,10.93
2023-04-24T06:10:11.045Z,11.43
2023-04-24T06:12:38.386Z,10.13
2023-04-24T06:15:05.438Z,10.15
2023-04-24T06:17:32.315Z,10.80
2023-04-24T06:19:58.946Z,9.82
2023-04-24T06:22:25.560Z,9.65
2023-04-24T06:24:52.197Z,8.95
2023-04-24T06:27:18.693Z,9.85
2023-04-24T06:29:45.256Z,9.00
2023-04-24T06:32:12.041Z,8.82
2023-04-24T06:34:38.777Z,9.00
2023-04-24T06:37:05.345Z,8.30
2023-04-24T06:39:33.240Z,7.03
2023-04-24T08:53:55.967Z,6.20
2023-04-24T08:56:24.442Z,7.18
2023-04-24T08:58:52.426Z,6.07
2023-04-24T09:01:22.526Z,6.22
2023-04-24T09:03:50.957Z,6.20
2023-04-24T09:06:20.325Z,6.85
2023-04-24T09:08:48.114Z,6.47
2023-04-24T09:11:14.783Z,5.93
2023-04-24T09:13:42.160Z,6.45
2023-04-24T09:16:08.761Z,6.75
2023-04-24T09:18:37.569Z,6.75
2023-04-24T09:21:08.338Z,6.32
2023-04-24T09:23:35.346Z,6.63
2023-04-24T09:26:03.395Z,7.22
2023-04-24T09:28:36.976Z,8.00
2023-04-24T09:31:19.175Z,7.70
2023-04-24T09:34:06.435Z,6.50
2023-04-24T09:36:41.513Z,7.18
2023-04-24T09:39:13.607Z,7.00
2023-04-24T09:41:54.967Z,8.30
2023-04-24T09:44:23.614Z,8.27
2023-04-24T09:46:52.645Z,7.50
2023-04-24T09:49:30.112Z,7.78
2023-04-24T09:52:11.309Z,7.93
2023-04-24T09:54:38.768Z,7.47
2023-04-24T09:57:06.048Z,6.35
2023-04-24T09:59:33.012Z,6.45
2023-04-24T10:02:01.132Z,6.25
2023-04-24T10:04:29.533Z,6.07
2023-04-24T10:06:58.422Z,6.57
2023-04-24T10:09:27.169Z,6.75
2023-04-24T10:11:55.702Z,6.65
2023-04-24T10:14:24.486Z,6.57
2023-04-24T10:16:53.839Z,6.05
2023-04-24T10:19:20.972Z,6.80
2023-04-24T10:21:48.133Z,6.45
2023-04-24T10:24:16.673Z,6.50
2023-04-24T10:26:44.178Z,6.00
2023-04-24T10:29:13.651Z,5.60
2023-04-24T10:31:41.052Z,5.43
2023-04-24T10:34:09.995Z,6.13
2023-04-24T10:36:59.823Z,5.55
2023-04-24T10:39:28.567Z,5.38
2023-04-24T10:41:58.801Z,8.35
2023-04-24T10:44:25.798Z,7.00
2023-04-24T10:46:56.758Z,5.88
2023-04-24T10:49:31.208Z,6.18
2023-04-24T10:52:02.721Z,6.18
2023-04-24T10:54:41.660Z,6.40
2023-04-24T10:57:20.623Z,6.82
2023-04-24T10:59:48.382Z,6.80
2023-04-24T11:02:19.205Z,6.97
2023-04-24T11:04:46.670Z,6.82
2023-04-24T11:07:13.975Z,7.43
2023-04-24T11:09:44.404Z,6.85
2023-04-24T11:12:13.727Z,6.63
2023-04-24T11:14:59.180Z,7.07
2023-04-24T11:17:38.558Z,6.93
2023-04-24T11:20:26.158Z,7.20
2023-04-24T11:23:05.125Z,7.15
2023-04-24T11:25:33.378Z,6.68
2023-04-24T11:28:07.333Z,7.28
2023-04-24T11:30:34.867Z,6.90
2023-04-24T11:33:06.023Z,7.55
2023-04-24T11:35:38.559Z,6.95
2023-04-24T11:40:36.050Z,6.75
2023-04-24T11:43:07.739Z,6.50
2023-04-24T11:45:34.894Z,6.47
2023-04-24T11:48:01.658Z,6.28
2023-04-24T11:50:29.653Z,6.40
2023-04-24T11:52:56.993Z,7.10
2023-04-24T11:55:29.668Z,6.97
2023-04-24T11:57:58.633Z,7.60
2023-04-24T12:00:30.350Z,6.55
2023-04-24T12:03:08.855Z,7.03
2023-04-24T12:05:36.252Z,7.13
2023-04-24T12:08:03.168Z,6.97
2023-04-24T12:10:32.114Z,6.68
2023-04-24T12:12:59.979Z,7.85
2023-04-24T12:15:27.264Z,7.60
2023-04-24T12:17:56.145Z,7.47
2023-04-24T12:20:31.180Z,7.65
2023-04-24T12:22:59.821Z,7.13
2023-04-24T12:25:30.918Z,8.05
2023-04-24T12:28:06.793Z,7.75
2023-04-24T12:30:36.460Z,7.05
2023-04-24T12:33:05.631Z,7.18
2023-04-24T12:35:34.596Z,7.45
2023-04-24T12:38:11.575Z,7.53
2023-04-24T12:40:38.333Z,7.25
2023-04-24T12:43:18.153Z,7.50
2023-04-24T12:45:46.087Z,7.60
2023-04-24T12:48:13.250Z,7.50
2023-04-24T12:50:46.074Z,7.45
2023-04-24T12:53:13.727Z,9.13
2023-04-24T12:55:40.769Z,8.10
2023-04-24T12:58:09.134Z,8.50
2023-04-24T13:00:35.805Z,7.57
2023-04-24T13:03:02.865Z,8.10
2023-04-24T13:39:13.196Z,6.88
2023-04-24T13:41:42.872Z,6.60
2023-04-24T13:44:10.255Z,7.57
2023-04-24T13:46:37.019Z,6.85
2023-04-24T13:49:04.662Z,7.13
2023-04-24T13:51:31.486Z,6.45
2023-04-24T13:53:58.002Z,6.60
2023-04-24T13:56:24.750Z,6.40
2023-04-24T13:58:51.739Z,5.80
2023-04-24T14:01:19.452Z,6.25
2023-04-24T14:03:46.493Z,6.50
2023-04-24T14:06:13.217Z,6.25
2023-04-24T14:08:39.896Z,6.60
2023-04-24T14:11:06.559Z,5.95
2023-04-24T14:13:38.581Z,5.60
2023-04-24T14:16:05.950Z,5.68
2023-04-24T14:18:32.583Z,5.60
2023-04-24T14:20:59.226Z,5.53
2023-04-24T14:23:25.811Z,5.80
2023-04-24T14:25:53.482Z,5.82
2023-04-24T14:28:21.331Z,5.78
2023-04-24T14:30:48.537Z,5.95
2023-04-24T14:33:15.687Z,4.95
2023-04-24T14:35:44.174Z,5.32
2023-04-24T14:38:11.380Z,5.20
2023-04-24T14:41:02.556Z,5.65
2023-04-24T14:43:24.670Z,5.90
2023-04-24T14:45:51.464Z,5.78
2023-04-24T14:48:18.728Z,6.10
2023-04-24T14:50:46.273Z,6.00
2023-04-24T14:53:12.820Z,5.85
2023-04-24T14:55:39.569Z,5.82
2023-04-24T14:58:06.198Z,5.70
2023-04-24T15:00:32.876Z,6.22
2023-04-24T15:02:59.671Z,5.82
2023-04-24T15:05:26.707Z,5.78
2023-04-24T15:07:53.632Z,5.55
2023-04-24T15:10:23.368Z,4.88
2023-04-24T15:12:50.999Z,5.90
2023-04-24T15:15:17.863Z,5.47
2023-04-24T15:17:44.360Z,5.45
2023-04-24T15:20:11.132Z,5.28
2023-04-24T15:22:37.668Z,5.82
2023-04-24T15:25:04.911Z,4.93
2023-04-24T15:27:41.529Z,4.85
2023-04-24T15:30:09.117Z,4.88
2023-04-24T15:32:37.095Z,5.18
2023-04-24T15:35:09.289Z,5.93
2023-04-24T15:37:37.200Z,6.00
2023-04-24T15:40:06.589Z,6.05
2023-04-24T15:42:34.373Z,6.38
2023-04-24T15:45:00.937Z,5.85
2023-04-24T15:47:27.791Z,5.70
2023-04-24T15:49:54.644Z,6.00
2023-04-24T15:52:21.269Z,6.28
2023-04-24T15:54:47.916Z,6.93
2023-04-24T15:57:16.650Z,6.85
2023-04-24T15:59:45.648Z,6.85
2023-04-24T16:02:20.883Z,6.60
2023-04-24T16:04:49.086Z,6.22
2023-04-24T16:07:18.239Z,6.05
2023-04-24T16:09:44.936Z,6.25
2023-04-24T16:12:12.101Z,5.78
2023-04-24T16:14:38.881Z,5.88
2023-04-24T16:17:05.986Z,5.63
2023-04-24T16:19:34.597Z,5.68
2023-04-24T16:22:03.379Z,5.97
2023-04-24T16:24:30.486Z,5.72
2023-04-24T16:26:57.461Z,5.95
2023-04-24T16:29:31.174Z,5.78
2023-04-24T16:31:57.679Z,6.20
2023-04-24T16:34:24.449Z,6.15
2023-04-24T16:36:51.066Z,6.50
2023-04-24T16:39:18.007Z,5.45
2023-04-24T16:41:46.173Z,4.22
2023-04-24T16:44:13.709Z,2.97
2023-04-24T16:46:40.356Z,3.83
2023-04-24T16:49:08.138Z,4.80
2023-04-24T16:51:34.882Z,6.28
2023-04-24T16:54:02.298Z,5.80
2023-04-24T16:56:28.844Z,5.65
2023-04-24T16:58:56.291Z,5.55
2023-04-24T17:01:30.424Z,5.40
2023-04-24T17:03:57.448Z,5.55
2023-04-24T17:06:24.462Z,5.93
2023-04-24T17:08:54.384Z,5.90
2023-04-24T17:11:21.347Z,6.00
2023-04-24T17:13:54.005Z,5.18
2023-04-24T17:16:45.952Z,5.07
2023-04-24T17:19:39.997Z,5.65
2023-04-24T17:22:07.303Z,4.75
2023-04-24T17:24:35.166Z,4.65
2023-04-24T17:27:13.887Z,4.78
2023-04-24T17:29:45.034Z,4.07
2023-04-24T17:32:13.849Z,4.50
2023-04-24T17:34:40.748Z,4.15
2023-04-24T17:37:07.254Z,4.10
2023-04-24T17:39:33.797Z,4.63
2023-04-24T17:42:01.486Z,4.55
2023-04-24T17:44:30.175Z,4.32
2023-04-24T17:46:56.838Z,4.50
2023-04-24T17:49:25.394Z,4.80
2023-04-24T17:51:52.024Z,4.43
2023-04-24T17:54:18.618Z,4.30
2023-04-24T17:56:45.500Z,4.28
2023-04-24T17:59:12.198Z,4.40
2023-04-24T18:01:38.839Z,4.95
2023-04-24T18:04:05.661Z,4.63
2023-04-24T18:06:32.556Z,4.95
2023-04-24T18:08:59.097Z,5.45
2023-04-24T18:11:31.963Z,6.00
2023-04-24T18:13:58.651Z,5.43
2023-04-24T18:16:25.922Z,5.70
2023-04-24T18:18:53.838Z,5.38
2023-04-24T18:21:20.463Z,5.63
2023-04-24T18:23:47.033Z,6.28
2023-04-24T18:26:16.981Z,5.95
2023-04-24T18:28:44.317Z,6.03
2023-04-24T18:31:11.040Z,6.18
2023-04-24T18:33:37.798Z,6.38
2023-04-24T18:36:04.518Z,6.53
2023-04-24T18:38:31.344Z,7.20
2023-04-24T18:40:59.208Z,7.53
2023-04-24T18:43:25.796Z,7.43
2023-04-24T18:45:52.454Z,7.68
2023-04-24T18:48:18.896Z,7.43
2023-04-24T18:50:46.483Z,7.00
2023-04-24T18:53:15.271Z,7.78
2023-04-24T18:55:41.813Z,7.30
2023-04-24T18:58:08.377Z,7.43
2023-04-24T19:00:34.909Z,8.25
2023-04-24T19:03:01.575Z,7.75
2023-04-24T19:05:28.128Z,9.00
2023-04-24T19:07:54.809Z,8.48
2023-04-24T19:10:21.278Z,9.27
2023-04-24T19:12:49.514Z,8.43
2023-04-24T19:15:16.166Z,8.02
2023-04-24T19:17:42.779Z,8.35
2023-04-24T19:20:09.647Z,7.75
2023-04-24T19:22:37.398Z,8.30
2023-04-24T19:25:05.384Z,9.02
2023-04-24T19:27:32.020Z,8.77
2023-04-24T19:29:58.567Z,8.45
2023-04-24T19:32:25.545Z,9.02
2023-04-24T19:34:52.110Z,9.98
2023-04-24T19:37:18.617Z,9.48
2023-04-24T19:39:45.281Z,9.60
2023-04-24T19:42:11.742Z,9.05
2023-04-24T19:44:38.360Z,9.45
2023-04-24T19:47:04.931Z,8.73
2023-04-24T19:49:32.655Z,9.02
2023-04-24T19:51:59.126Z,9.30
2023-04-24T19:54:26.139Z,9.40
2023-04-24T19:56:52.636Z,8.65
2023-04-24T19:59:19.294Z,8.90
2023-04-24T20:01:46.005Z,8.75
2023-04-24T20:04:13.057Z,7.80
2023-04-24T20:06:39.695Z,9.30
2023-04-24T20:09:06.362Z,9.10
2023-04-24T20:11:33.932Z,8.70
2023-04-24T20:14:03.557Z,8.88
2023-04-24T20:16:30.967Z,8.85
2023-04-24T20:18:58.418Z,8.63
2023-04-24T20:21:25.085Z,8.77
2023-04-24T20:23:52.313Z,8.95
2023-04-24T20:26:18.870Z,8.85
2023-04-24T20:28:45.423Z,8.63
2023-04-24T20:31:12.144Z,8.35
2023-04-24T20:33:41.394Z,7.68
2023-04-24T20:36:09.571Z,8.40
2023-04-24T20:38:36.932Z,8.60
2023-04-24T20:41:03.837Z,7.40
2023-04-24T20:43:30.421Z,8.13
2023-04-24T20:46:00.146Z,8.25
2023-04-24T20:48:26.807Z,7.82
2023-04-24T20:50:54.148Z,7.85
2023-04-24T20:53:23.498Z,8.23
2023-04-24T20:55:52.305Z,9.05
2023-04-24T20:58:20.781Z,8.55
2023-04-24T21:00:47.674Z,8.55
2023-04-24T21:03:14.229Z,9.23
2023-04-24T21:05:40.872Z,9.68
2023-04-24T21:08:07.319Z,8.93
2023-04-24T21:10:35.877Z,9.40
2023-04-24T21:13:02.445Z,9.63
2023-04-24T21:15:29.399Z,10.30
2023-04-24T21:17:56.538Z,9.93
2023-04-24T21:20:24.353Z,9.90
2023-04-24T21:22:50.946Z,10.30
2023-04-24T21:25:17.704Z,10.77
2023-04-24T21:27:44.409Z,11.25
2023-04-24T21:30:13.183Z,11.13
2023-04-24T21:32:40.566Z,11.00
2023-04-24T21:35:07.579Z,11.10
2023-04-24T21:37:35.458Z,11.50
2023-04-24T21:40:04.658Z,11.52
2023-04-24T21:42:31.836Z,11.38
2023-04-24T21:44:58.736Z,11.45
2023-04-24T21:47:25.357Z,10.63
2023-04-24T21:49:51.967Z,11.90
2023-04-24T21:52:18.582Z,10.88
2023-04-24T21:54:45.079Z,10.43
2023-04-24T21:57:12.338Z,10.68
2023-04-24T21:59:39.423Z,10.32
2023-04-24T22:02:06.224Z,10.93
2023-04-24T22:04:33.304Z,11.48
2023-04-24T22:06:59.840Z,10.80
2023-04-24T22:09:26.429Z,11.50
2023-04-24T22:11:54.841Z,11.27
2023-04-24T22:14:21.472Z,10.68
2023-04-24T22:16:48.036Z,10.63
2023-04-24T22:19:14.673Z,11.15
2023-04-24T22:21:41.600Z,11.63
2023-04-24T22:24:08.887Z,10.85
2023-04-24T22:26:35.808Z,10.95
2023-04-24T22:29:02.495Z,11.48
2023-04-24T22:31:29.213Z,10.65
2023-04-24T22:33:55.888Z,12.15
2023-04-24T22:36:22.414Z,12.30
2023-04-24T22:38:48.866Z,12.73
2023-04-24T22:41:16.066Z,12.82
2023-04-24T22:43:42.583Z,12.05
2023-04-24T22:46:09.133Z,13.35
2023-04-24T22:48:36.225Z,12.40
2023-04-24T22:51:03.167Z,12.20
2023-04-24T22:53:29.938Z,13.55
2023-04-24T22:55:56.820Z,12.65
2023-04-24T22:58:24.383Z,13.15
2023-04-24T23:00:51.143Z,13.20
2023-04-24T23:03:17.759Z,13.52
2023-04-24T23:05:44.454Z,12.90
